Oil Finn — OJ9326 — position and weather

sailwx.info

Track history (hours):
 
Tides and Currents Weather Stations Pressure Air Temp Water Temp Dewpoint Dewpoint Depression Visibility Wind Speed Wind Dir Waves Ship Positions

Oil Finn

Last reported at 2014-Nov-14 10:31 UTC. Time now 2014-Nov-23 16:12 UTC.
Position N 59°59' E 024°00'.
Warning: this ship's position is 9 days out of date.

Length 20 m; draft 2 m.

Type: Tanker. MMSI: 230033790.

Date/timePositionNaut miles runAvg speedWind from/ knotsBaromVisibWave heightAir tempDewpointWater temp
2014-Nov-14 10:31N 59°59' E 024°00'6 6.3
2014-Nov-14 09:32N 59°57' E 023°49'7 6.7
2014-Nov-14 08:33N 59°53' E 023°38'4 3.6
2014-Nov-14 07:33N 59°50' E 023°34'0 0.0
2014-Nov-14 06:33N 59°50' E 023°34'0 0.0
2014-Nov-14 05:33N 59°50' E 023°34'0 0.0
2014-Nov-14 04:33N 59°50' E 023°34'0 0.0
2014-Nov-14 03:33N 59°50' E 023°34'0 0.0
2014-Nov-14 02:33N 59°50' E 023°34'0 0.0
2014-Nov-14 01:33N 59°50' E 023°34'0 0.0
2014-Nov-14 00:33N 59°50' E 023°34'0 0.0
2014-Nov-13 23:33N 59°50' E 023°34'0 0.0
2014-Nov-13 22:33N 59°50' E 023°34'0 0.0
2014-Nov-13 21:33N 59°50' E 023°34'0 0.0
2014-Nov-13 20:33N 59°50' E 023°34'0 0.0
2014-Nov-13 19:32N 59°50' E 023°34'0 0.0
2014-Nov-13 18:33N 59°50' E 023°34'0 0.0
2014-Nov-13 17:33N 59°50' E 023°34'0 0.0
2014-Nov-13 16:31N 59°50' E 023°34'0 0.0
2014-Nov-13 15:33N 59°50' E 023°34'0 0.0
2014-Nov-13 14:33N 59°50' E 023°34'0 0.0
2014-Nov-13 13:33N 59°50' E 023°34'0 0.0
2014-Nov-13 12:33N 59°50' E 023°34'0 0.0
2014-Nov-13 11:33N 59°50' E 023°34'0 0.0
2014-Nov-13 10:33N 59°50' E 023°34'0 0.0
2014-Nov-13 09:33N 59°50' E 023°34'0 0.0
2014-Nov-13 08:33N 59°50' E 023°34'0 0.0
2014-Nov-13 07:33N 59°50' E 023°34'0 0.0
2014-Nov-13 06:33N 59°50' E 023°34'0 0.0
2014-Nov-13 05:33N 59°50' E 023°34'0 0.0
2014-Nov-13 04:33N 59°50' E 023°34'0 0.0
2014-Nov-13 03:33N 59°50' E 023°34'0 0.0
2014-Nov-13 02:33N 59°50' E 023°34'0 0.0
2014-Nov-13 01:33N 59°50' E 023°34'0 0.0
2014-Nov-13 00:33N 59°50' E 023°34'0 0.0
2014-Nov-12 23:33N 59°50' E 023°34'0 0.0
2014-Nov-12 22:33N 59°50' E 023°34'0 0.0
2014-Nov-12 21:33N 59°50' E 023°34'0 0.0
2014-Nov-12 20:33N 59°50' E 023°34'0 0.0
2014-Nov-12 19:33N 59°50' E 023°34'0 0.0
2014-Nov-12 18:33N 59°50' E 023°34'0 0.0
2014-Nov-12 17:33N 59°50' E 023°34'0 0.0
2014-Nov-12 16:33N 59°50' E 023°34'0 0.4
2014-Nov-12 15:33N 59°50' E 023°35'2 2.1
2014-Nov-12 14:33N 59°52' E 023°36'3 3.5
2014-Nov-12 13:33N 59°54' E 023°41'1 1.1
2014-Nov-12 12:33N 59°54' E 023°43'2 1.6
2014-Nov-12 11:04N 59°56' E 023°47'3 5.2
2014-Nov-12 10:33N 59°56' E 023°52'3 2.2
2014-Nov-12 09:18N 59°56' E 023°58'52 1.2
2014-Nov-10 14:27N 60°11' E 025°38'14 2.3
2014-Nov-10 08:19N 60°08' E 025°10'  
2014-Nov-06 18:23N 60°08' E 025°06'4 1.2
2014-Nov-06 15:17N 60°12' E 025°05'3 4.2
2014-Nov-06 14:33N 60°12' E 025°11'1 0.3
2014-Nov-06 11:33N 60°13' E 025°12'  
Track history (hours):
 
Tides and Currents Weather Stations Pressure Air Temp Water Temp Dewpoint Dewpoint Depression Visibility Wind Speed Wind Dir Waves Ship Positions

Oil Finn

Last reported at 2014-Nov-14 10:31 UTC. Time now 2014-Nov-23 16:12 UTC.
Position N 59°59' E 024°00'.
Warning: this ship's position is 9 days out of date.

Length 20 m; draft 2 m.

Type: Tanker. MMSI: 230033790.

Date/timePositionNaut miles runAvg speedWind from/ knotsBaromVisibWave heightAir tempDewpointWater temp
2014-Nov-14 10:31N 59°59' E 024°00'6 6.3
2014-Nov-14 09:32N 59°57' E 023°49'7 6.7
2014-Nov-14 08:33N 59°53' E 023°38'4 3.6
2014-Nov-14 07:33N 59°50' E 023°34'0 0.0
2014-Nov-14 06:33N 59°50' E 023°34'0 0.0
2014-Nov-14 05:33N 59°50' E 023°34'0 0.0
2014-Nov-14 04:33N 59°50' E 023°34'0 0.0
2014-Nov-14 03:33N 59°50' E 023°34'0 0.0
2014-Nov-14 02:33N 59°50' E 023°34'0 0.0
2014-Nov-14 01:33N 59°50' E 023°34'0 0.0
2014-Nov-14 00:33N 59°50' E 023°34'0 0.0
2014-Nov-13 23:33N 59°50' E 023°34'0 0.0
2014-Nov-13 22:33N 59°50' E 023°34'0 0.0
2014-Nov-13 21:33N 59°50' E 023°34'0 0.0
2014-Nov-13 20:33N 59°50' E 023°34'0 0.0
2014-Nov-13 19:32N 59°50' E 023°34'0 0.0
2014-Nov-13 18:33N 59°50' E 023°34'0 0.0
2014-Nov-13 17:33N 59°50' E 023°34'0 0.0
2014-Nov-13 16:31N 59°50' E 023°34'0 0.0
2014-Nov-13 15:33N 59°50' E 023°34'0 0.0
2014-Nov-13 14:33N 59°50' E 023°34'0 0.0
2014-Nov-13 13:33N 59°50' E 023°34'0 0.0
2014-Nov-13 12:33N 59°50' E 023°34'0 0.0
2014-Nov-13 11:33N 59°50' E 023°34'0 0.0
2014-Nov-13 10:33N 59°50' E 023°34'0 0.0
2014-Nov-13 09:33N 59°50' E 023°34'0 0.0
2014-Nov-13 08:33N 59°50' E 023°34'0 0.0
2014-Nov-13 07:33N 59°50' E 023°34'0 0.0
2014-Nov-13 06:33N 59°50' E 023°34'0 0.0
2014-Nov-13 05:33N 59°50' E 023°34'0 0.0
2014-Nov-13 04:33N 59°50' E 023°34'0 0.0
2014-Nov-13 03:33N 59°50' E 023°34'0 0.0
2014-Nov-13 02:33N 59°50' E 023°34'0 0.0
2014-Nov-13 01:33N 59°50' E 023°34'0 0.0
2014-Nov-13 00:33N 59°50' E 023°34'0 0.0
2014-Nov-12 23:33N 59°50' E 023°34'0 0.0
2014-Nov-12 22:33N 59°50' E 023°34'0 0.0
2014-Nov-12 21:33N 59°50' E 023°34'0 0.0
2014-Nov-12 20:33N 59°50' E 023°34'0 0.0
2014-Nov-12 19:33N 59°50' E 023°34'0 0.0
2014-Nov-12 18:33N 59°50' E 023°34'0 0.0
2014-Nov-12 17:33N 59°50' E 023°34'0 0.0
2014-Nov-12 16:33N 59°50' E 023°34'0 0.4
2014-Nov-12 15:33N 59°50' E 023°35'2 2.1
2014-Nov-12 14:33N 59°52' E 023°36'3 3.5
2014-Nov-12 13:33N 59°54' E 023°41'1 1.1
2014-Nov-12 12:33N 59°54' E 023°43'2 1.6
2014-Nov-12 11:04N 59°56' E 023°47'3 5.2
2014-Nov-12 10:33N 59°56' E 023°52'3 2.2
2014-Nov-12 09:18N 59°56' E 023°58'52 1.2
2014-Nov-10 14:27N 60°11' E 025°38'14 2.3
2014-Nov-10 08:19N 60°08' E 025°10'  
2014-Nov-06 18:23N 60°08' E 025°06'4 1.2
2014-Nov-06 15:17N 60°12' E 025°05'3 4.2
2014-Nov-06 14:33N 60°12' E 025°11'1 0.3
2014-Nov-06 11:33N 60°13' E 025°12'  

Dump ship's entire track history